sensor_id;sensor_type;location;lat;lon;timestamp;P1;durP1;ratioP1;P2;durP2;ratioP2
49488;SDS011;35382;51.484;11.476;2022-07-10T00:00:45;32.55;;;31.10;;
49488;SDS011;35382;51.484;11.476;2022-07-10T00:02:26;37.08;;;34.97;;
49488;SDS011;35382;51.484;11.476;2022-07-10T00:04:07;35.83;;;34.08;;
49488;SDS011;35382;51.484;11.476;2022-07-10T00:05:48;35.78;;;33.90;;
49488;SDS011;35382;51.484;11.476;2022-07-10T00:07:29;36.05;;;34.05;;
49488;SDS011;35382;51.484;11.476;2022-07-10T00:09:10;37.42;;;35.40;;
49488;SDS011;35382;51.484;11.476;2022-07-10T00:10:51;29.88;;;28.30;;
49488;SDS011;35382;51.484;11.476;2022-07-10T00:12:32;26.90;;;25.33;;
49488;SDS011;35382;51.484;11.476;2022-07-10T00:14:13;28.67;;;27.25;;
49488;SDS011;35382;51.484;11.476;2022-07-10T00:15:55;34.58;;;32.88;;
49488;SDS011;35382;51.484;11.476;2022-07-10T00:17:36;33.65;;;31.83;;
49488;SDS011;35382;51.484;11.476;2022-07-10T00:19:16;38.58;;;36.50;;
49488;SDS011;35382;51.484;11.476;2022-07-10T00:20:57;33.55;;;31.75;;
49488;SDS011;35382;51.484;11.476;2022-07-10T00:22:39;32.70;;;30.98;;
49488;SDS011;35382;51.484;11.476;2022-07-10T00:24:20;32.75;;;31.15;;
49488;SDS011;35382;51.484;11.476;2022-07-10T00:26:01;35.55;;;33.83;;
49488;SDS011;35382;51.484;11.476;2022-07-10T00:27:42;38.42;;;36.40;;
49488;SDS011;35382;51.484;11.476;2022-07-10T00:29:23;36.30;;;34.55;;
49488;SDS011;35382;51.484;11.476;2022-07-10T00:31:03;34.97;;;32.97;;
49488;SDS011;35382;51.484;11.476;2022-07-10T00:32:44;36.00;;;34.15;;
49488;SDS011;35382;51.484;11.476;2022-07-10T00:34:25;32.67;;;31.10;;
49488;SDS011;35382;51.484;11.476;2022-07-10T00:36:06;35.22;;;33.08;;
49488;SDS011;35382;51.484;11.476;2022-07-10T00:37:48;34.97;;;33.40;;
49488;SDS011;35382;51.484;11.476;2022-07-10T00:39:29;32.60;;;30.80;;
49488;SDS011;35382;51.484;11.476;2022-07-10T00:41:10;35.60;;;33.90;;
49488;SDS011;35382;51.484;11.476;2022-07-10T00:42:51;34.95;;;33.03;;
49488;SDS011;35382;51.484;11.476;2022-07-10T00:44:32;35.58;;;33.80;;
49488;SDS011;35382;51.484;11.476;2022-07-10T00:46:13;31.80;;;30.17;;
49488;SDS011;35382;51.484;11.476;2022-07-10T00:47:56;35.95;;;34.05;;
49488;SDS011;35382;51.484;11.476;2022-07-10T00:49:38;37.53;;;35.55;;
49488;SDS011;35382;51.484;11.476;2022-07-10T00:51:20;39.03;;;36.90;;
49488;SDS011;35382;51.484;11.476;2022-07-10T00:53:04;39.80;;;37.78;;
49488;SDS011;35382;51.484;11.476;2022-07-10T00:54:46;41.10;;;38.97;;
49488;SDS011;35382;51.484;11.476;2022-07-10T00:56:31;44.33;;;42.33;;
49488;SDS011;35382;51.484;11.476;2022-07-10T00:58:12;39.50;;;37.60;;
49488;SDS011;35382;51.484;11.476;2022-07-10T00:59:53;33.97;;;31.92;;
49488;SDS011;35382;51.484;11.476;2022-07-10T01:01:34;39.47;;;37.58;;
49488;SDS011;35382;51.484;11.476;2022-07-10T01:03:15;39.20;;;37.03;;
49488;SDS011;35382;51.484;11.476;2022-07-10T01:04:57;40.60;;;38.50;;
49488;SDS011;35382;51.484;11.476;2022-07-10T01:06:38;42.83;;;40.58;;
49488;SDS011;35382;51.484;11.476;2022-07-10T01:08:19;34.50;;;32.45;;
49488;SDS011;35382;51.484;11.476;2022-07-10T01:10:00;37.22;;;35.42;;
49488;SDS011;35382;51.484;11.476;2022-07-10T01:11:42;40.70;;;38.60;;
49488;SDS011;35382;51.484;11.476;2022-07-10T01:13:24;38.90;;;36.60;;
49488;SDS011;35382;51.484;11.476;2022-07-10T01:15:05;43.40;;;41.38;;
49488;SDS011;35382;51.484;11.476;2022-07-10T01:16:47;42.92;;;40.63;;
49488;SDS011;35382;51.484;11.476;2022-07-10T01:18:29;40.67;;;38.67;;
49488;SDS011;35382;51.484;11.476;2022-07-10T01:20:10;43.78;;;41.47;;
49488;SDS011;35382;51.484;11.476;2022-07-10T01:21:51;55.17;;;52.83;;
49488;SDS011;35382;51.484;11.476;2022-07-10T01:23:32;58.05;;;55.55;;
49488;SDS011;35382;51.484;11.476;2022-07-10T01:25:13;62.97;;;60.13;;
49488;SDS011;35382;51.484;11.476;2022-07-10T01:26:55;52.03;;;49.72;;
49488;SDS011;35382;51.484;11.476;2022-07-10T01:28:36;51.65;;;49.35;;
49488;SDS011;35382;51.484;11.476;2022-07-10T01:30:17;51.00;;;48.72;;
49488;SDS011;35382;51.484;11.476;2022-07-10T01:31:59;48.85;;;46.42;;
49488;SDS011;35382;51.484;11.476;2022-07-10T01:33:41;49.22;;;46.80;;
49488;SDS011;35382;51.484;11.476;2022-07-10T01:35:23;55.15;;;52.70;;
49488;SDS011;35382;51.484;11.476;2022-07-10T01:37:04;64.85;;;61.92;;
49488;SDS011;35382;51.484;11.476;2022-07-10T01:38:45;64.53;;;61.67;;
49488;SDS011;35382;51.484;11.476;2022-07-10T01:40:26;67.65;;;64.30;;
49488;SDS011;35382;51.484;11.476;2022-07-10T01:42:07;58.67;;;55.88;;
49488;SDS011;35382;51.484;11.476;2022-07-10T01:43:49;50.67;;;48.25;;
49488;SDS011;35382;51.484;11.476;2022-07-10T01:45:30;46.92;;;44.97;;
49488;SDS011;35382;51.484;11.476;2022-07-10T01:47:11;45.65;;;43.45;;
49488;SDS011;35382;51.484;11.476;2022-07-10T01:48:52;45.63;;;43.42;;
49488;SDS011;35382;51.484;11.476;2022-07-10T01:50:34;44.10;;;41.90;;
49488;SDS011;35382;51.484;11.476;2022-07-10T01:52:15;39.75;;;37.78;;
49488;SDS011;35382;51.484;11.476;2022-07-10T01:53:55;43.10;;;41.08;;
49488;SDS011;35382;51.484;11.476;2022-07-10T01:55:36;40.42;;;38.47;;
49488;SDS011;35382;51.484;11.476;2022-07-10T01:57:18;41.15;;;38.95;;
49488;SDS011;35382;51.484;11.476;2022-07-10T01:58:58;36.58;;;34.80;;
49488;SDS011;35382;51.484;11.476;2022-07-10T02:00:41;36.65;;;34.80;;
49488;SDS011;35382;51.484;11.476;2022-07-10T02:02:22;34.95;;;33.15;;
49488;SDS011;35382;51.484;11.476;2022-07-10T02:06:47;27.27;;;25.92;;
49488;SDS011;35382;51.484;11.476;2022-07-10T02:08:28;33.53;;;31.65;;
49488;SDS011;35382;51.484;11.476;2022-07-10T02:10:09;33.70;;;32.00;;
49488;SDS011;35382;51.484;11.476;2022-07-10T02:11:50;35.53;;;33.72;;
49488;SDS011;35382;51.484;11.476;2022-07-10T02:13:31;40.55;;;38.60;;
49488;SDS011;35382;51.484;11.476;2022-07-10T02:15:12;43.60;;;41.53;;
49488;SDS011;35382;51.484;11.476;2022-07-10T02:16:53;48.90;;;46.70;;
49488;SDS011;35382;51.484;11.476;2022-07-10T02:18:34;40.75;;;39.00;;
49488;SDS011;35382;51.484;11.476;2022-07-10T02:20:15;39.72;;;37.83;;
49488;SDS011;35382;51.484;11.476;2022-07-10T02:21:56;38.53;;;36.45;;
49488;SDS011;35382;51.484;11.476;2022-07-10T02:23:38;39.95;;;38.03;;
49488;SDS011;35382;51.484;11.476;2022-07-10T02:25:21;47.38;;;45.15;;
49488;SDS011;35382;51.484;11.476;2022-07-10T02:27:02;49.55;;;47.42;;
49488;SDS011;35382;51.484;11.476;2022-07-10T02:28:43;48.70;;;46.53;;
49488;SDS011;35382;51.484;11.476;2022-07-10T02:30:24;50.55;;;48.42;;
49488;SDS011;35382;51.484;11.476;2022-07-10T02:32:05;45.33;;;43.33;;
49488;SDS011;35382;51.484;11.476;2022-07-10T02:33:46;48.60;;;46.38;;
49488;SDS011;35382;51.484;11.476;2022-07-10T02:35:27;39.35;;;37.38;;
49488;SDS011;35382;51.484;11.476;2022-07-10T02:37:08;42.65;;;40.17;;
49488;SDS011;35382;51.484;11.476;2022-07-10T02:38:49;35.90;;;34.00;;
49488;SDS011;35382;51.484;11.476;2022-07-10T02:40:30;41.10;;;39.05;;
49488;SDS011;35382;51.484;11.476;2022-07-10T02:42:11;37.80;;;35.92;;
49488;SDS011;35382;51.484;11.476;2022-07-10T02:43:52;38.03;;;36.22;;
49488;SDS011;35382;51.484;11.476;2022-07-10T02:45:33;40.42;;;38.55;;
49488;SDS011;35382;51.484;11.476;2022-07-10T02:47:14;32.50;;;31.00;;
49488;SDS011;35382;51.484;11.476;2022-07-10T02:48:55;39.72;;;37.85;;
49488;SDS011;35382;51.484;11.476;2022-07-10T02:50:37;42.83;;;40.72;;
49488;SDS011;35382;51.484;11.476;2022-07-10T02:52:18;43.97;;;41.92;;
49488;SDS011;35382;51.484;11.476;2022-07-10T02:53:58;35.08;;;33.38;;
49488;SDS011;35382;51.484;11.476;2022-07-10T02:55:39;34.30;;;32.67;;
49488;SDS011;35382;51.484;11.476;2022-07-10T02:57:20;32.47;;;30.85;;
49488;SDS011;35382;51.484;11.476;2022-07-10T02:59:01;29.77;;;28.23;;
49488;SDS011;35382;51.484;11.476;2022-07-10T03:00:42;27.98;;;26.27;;
49488;SDS011;35382;51.484;11.476;2022-07-10T03:02:23;30.75;;;29.17;;
49488;SDS011;35382;51.484;11.476;2022-07-10T03:04:04;34.00;;;32.30;;
49488;SDS011;35382;51.484;11.476;2022-07-10T03:05:45;38.28;;;36.58;;
49488;SDS011;35382;51.484;11.476;2022-07-10T03:07:26;34.90;;;33.20;;
49488;SDS011;35382;51.484;11.476;2022-07-10T03:09:07;28.98;;;27.13;;
49488;SDS011;35382;51.484;11.476;2022-07-10T03:10:48;34.83;;;33.20;;
49488;SDS011;35382;51.484;11.476;2022-07-10T03:12:29;33.45;;;31.77;;
49488;SDS011;35382;51.484;11.476;2022-07-10T03:14:10;35.10;;;33.40;;
49488;SDS011;35382;51.484;11.476;2022-07-10T03:15:53;27.05;;;25.60;;
49488;SDS011;35382;51.484;11.476;2022-07-10T03:17:35;34.33;;;32.72;;
49488;SDS011;35382;51.484;11.476;2022-07-10T03:19:15;34.50;;;32.70;;
49488;SDS011;35382;51.484;11.476;2022-07-10T03:20:56;35.17;;;33.40;;
49488;SDS011;35382;51.484;11.476;2022-07-10T03:22:38;34.63;;;33.00;;
49488;SDS011;35382;51.484;11.476;2022-07-10T03:24:19;38.47;;;36.65;;
49488;SDS011;35382;51.484;11.476;2022-07-10T03:26:00;37.78;;;35.97;;
49488;SDS011;35382;51.484;11.476;2022-07-10T03:27:41;49.80;;;47.58;;
49488;SDS011;35382;51.484;11.476;2022-07-10T03:29:22;42.55;;;40.65;;
49488;SDS011;35382;51.484;11.476;2022-07-10T03:31:03;42.20;;;40.00;;
49488;SDS011;35382;51.484;11.476;2022-07-10T03:32:47;44.67;;;42.45;;
49488;SDS011;35382;51.484;11.476;2022-07-10T03:34:27;34.45;;;32.45;;
49488;SDS011;35382;51.484;11.476;2022-07-10T03:36:08;29.95;;;28.33;;
49488;SDS011;35382;51.484;11.476;2022-07-10T03:37:49;34.72;;;33.03;;
49488;SDS011;35382;51.484;11.476;2022-07-10T03:39:30;36.75;;;34.92;;
49488;SDS011;35382;51.484;11.476;2022-07-10T03:41:12;39.85;;;38.00;;
49488;SDS011;35382;51.484;11.476;2022-07-10T03:42:55;39.08;;;37.00;;
49488;SDS011;35382;51.484;11.476;2022-07-10T03:44:37;38.92;;;37.03;;
49488;SDS011;35382;51.484;11.476;2022-07-10T03:46:18;39.40;;;37.38;;
49488;SDS011;35382;51.484;11.476;2022-07-10T03:47:58;42.08;;;40.05;;
49488;SDS011;35382;51.484;11.476;2022-07-10T03:49:39;41.05;;;39.25;;
49488;SDS011;35382;51.484;11.476;2022-07-10T03:51:21;42.55;;;40.55;;
49488;SDS011;35382;51.484;11.476;2022-07-10T03:53:02;47.88;;;45.55;;
49488;SDS011;35382;51.484;11.476;2022-07-10T03:54:43;43.63;;;41.65;;
49488;SDS011;35382;51.484;11.476;2022-07-10T03:56:24;49.65;;;47.42;;
49488;SDS011;35382;51.484;11.476;2022-07-10T03:58:24;49.25;;;46.95;;
49488;SDS011;35382;51.484;11.476;2022-07-10T04:00:06;43.63;;;41.58;;
49488;SDS011;35382;51.484;11.476;2022-07-10T04:01:52;52.33;;;50.03;;
49488;SDS011;35382;51.484;11.476;2022-07-10T04:03:33;60.05;;;57.55;;
49488;SDS011;35382;51.484;11.476;2022-07-10T04:05:14;63.30;;;60.60;;
49488;SDS011;35382;51.484;11.476;2022-07-10T04:06:55;61.33;;;58.50;;
49488;SDS011;35382;51.484;11.476;2022-07-10T04:08:36;56.70;;;53.95;;
49488;SDS011;35382;51.484;11.476;2022-07-10T04:10:17;57.28;;;54.78;;
49488;SDS011;35382;51.484;11.476;2022-07-10T04:11:59;55.38;;;52.72;;
49488;SDS011;35382;51.484;11.476;2022-07-10T04:13:39;53.60;;;51.20;;
49488;SDS011;35382;51.484;11.476;2022-07-10T04:15:21;48.65;;;46.58;;
49488;SDS011;35382;51.484;11.476;2022-07-10T04:17:02;53.70;;;51.28;;
49488;SDS011;35382;51.484;11.476;2022-07-10T04:18:43;56.65;;;54.05;;
49488;SDS011;35382;51.484;11.476;2022-07-10T04:20:24;57.75;;;54.95;;
49488;SDS011;35382;51.484;11.476;2022-07-10T04:22:05;51.15;;;49.08;;
49488;SDS011;35382;51.484;11.476;2022-07-10T04:23:46;55.53;;;53.00;;
49488;SDS011;35382;51.484;11.476;2022-07-10T04:25:27;58.22;;;55.45;;
49488;SDS011;35382;51.484;11.476;2022-07-10T04:27:08;65.78;;;62.85;;
49488;SDS011;35382;51.484;11.476;2022-07-10T04:28:49;59.80;;;57.33;;
49488;SDS011;35382;51.484;11.476;2022-07-10T04:30:29;57.13;;;54.53;;
49488;SDS011;35382;51.484;11.476;2022-07-10T04:32:10;59.20;;;56.45;;
49488;SDS011;35382;51.484;11.476;2022-07-10T04:33:52;64.13;;;61.42;;
49488;SDS011;35382;51.484;11.476;2022-07-10T04:35:33;61.67;;;58.88;;
49488;SDS011;35382;51.484;11.476;2022-07-10T04:37:13;62.53;;;59.38;;
49488;SDS011;35382;51.484;11.476;2022-07-10T04:38:54;80.82;;;77.53;;
49488;SDS011;35382;51.484;11.476;2022-07-10T04:40:35;78.20;;;74.85;;
49488;SDS011;35382;51.484;11.476;2022-07-10T04:42:16;88.15;;;84.60;;
49488;SDS011;35382;51.484;11.476;2022-07-10T04:43:57;77.28;;;74.18;;
49488;SDS011;35382;51.484;11.476;2022-07-10T04:45:38;96.45;;;92.63;;
49488;SDS011;35382;51.484;11.476;2022-07-10T04:47:19;78.72;;;75.50;;
49488;SDS011;35382;51.484;11.476;2022-07-10T04:49:00;80.97;;;77.72;;
49488;SDS011;35382;51.484;11.476;2022-07-10T04:50:41;94.47;;;90.53;;
49488;SDS011;35382;51.484;11.476;2022-07-10T04:52:22;83.68;;;80.10;;
49488;SDS011;35382;51.484;11.476;2022-07-10T04:54:03;72.45;;;69.18;;
49488;SDS011;35382;51.484;11.476;2022-07-10T04:55:44;71.43;;;68.18;;
49488;SDS011;35382;51.484;11.476;2022-07-10T04:57:26;69.72;;;66.85;;
49488;SDS011;35382;51.484;11.476;2022-07-10T04:59:07;78.30;;;75.05;;
49488;SDS011;35382;51.484;11.476;2022-07-10T05:00:48;60.50;;;57.90;;
49488;SDS011;35382;51.484;11.476;2022-07-10T05:02:29;62.25;;;59.47;;
49488;SDS011;35382;51.484;11.476;2022-07-10T05:04:10;64.55;;;61.38;;
49488;SDS011;35382;51.484;11.476;2022-07-10T05:05:51;62.92;;;59.97;;
49488;SDS011;35382;51.484;11.476;2022-07-10T05:07:32;59.58;;;57.05;;
49488;SDS011;35382;51.484;11.476;2022-07-10T05:09:13;49.00;;;46.83;;
49488;SDS011;35382;51.484;11.476;2022-07-10T05:10:54;40.35;;;38.35;;
49488;SDS011;35382;51.484;11.476;2022-07-10T05:12:35;52.00;;;49.63;;
49488;SDS011;35382;51.484;11.476;2022-07-10T05:14:16;47.13;;;44.95;;
49488;SDS011;35382;51.484;11.476;2022-07-10T05:15:57;52.00;;;49.45;;
49488;SDS011;35382;51.484;11.476;2022-07-10T05:17:38;48.78;;;46.28;;
49488;SDS011;35382;51.484;11.476;2022-07-10T05:19:18;52.80;;;50.13;;
49488;SDS011;35382;51.484;11.476;2022-07-10T05:20:59;50.83;;;48.53;;
49488;SDS011;35382;51.484;11.476;2022-07-10T05:22:40;46.17;;;43.67;;
49488;SDS011;35382;51.484;11.476;2022-07-10T05:24:21;52.60;;;50.10;;
49488;SDS011;35382;51.484;11.476;2022-07-10T05:26:02;51.75;;;49.40;;
49488;SDS011;35382;51.484;11.476;2022-07-10T05:27:43;52.50;;;49.90;;
49488;SDS011;35382;51.484;11.476;2022-07-10T05:29:24;50.53;;;48.33;;
49488;SDS011;35382;51.484;11.476;2022-07-10T05:31:05;56.60;;;53.88;;
49488;SDS011;35382;51.484;11.476;2022-07-10T05:32:46;56.05;;;53.10;;
49488;SDS011;35382;51.484;11.476;2022-07-10T05:34:27;52.67;;;50.00;;
49488;SDS011;35382;51.484;11.476;2022-07-10T05:36:08;43.42;;;41.13;;
49488;SDS011;35382;51.484;11.476;2022-07-10T05:37:49;40.95;;;38.90;;
49488;SDS011;35382;51.484;11.476;2022-07-10T05:39:30;44.03;;;42.05;;
49488;SDS011;35382;51.484;11.476;2022-07-10T05:41:11;46.50;;;44.33;;
49488;SDS011;35382;51.484;11.476;2022-07-10T05:42:52;50.40;;;47.95;;
49488;SDS011;35382;51.484;11.476;2022-07-10T05:44:33;60.58;;;57.72;;
49488;SDS011;35382;51.484;11.476;2022-07-10T05:46:14;44.88;;;42.42;;
49488;SDS011;35382;51.484;11.476;2022-07-10T05:47:55;62.75;;;59.95;;
49488;SDS011;35382;51.484;11.476;2022-07-10T05:49:36;48.83;;;46.55;;
49488;SDS011;35382;51.484;11.476;2022-07-10T05:51:17;59.42;;;56.67;;
49488;SDS011;35382;51.484;11.476;2022-07-10T05:52:58;70.38;;;67.30;;
49488;SDS011;35382;51.484;11.476;2022-07-10T05:54:39;63.45;;;60.80;;
49488;SDS011;35382;51.484;11.476;2022-07-10T05:56:20;78.65;;;75.43;;
49488;SDS011;35382;51.484;11.476;2022-07-10T05:58:01;76.43;;;73.18;;
49488;SDS011;35382;51.484;11.476;2022-07-10T05:59:42;74.53;;;71.43;;
49488;SDS011;35382;51.484;11.476;2022-07-10T06:01:23;81.43;;;77.90;;
49488;SDS011;35382;51.484;11.476;2022-07-10T06:03:04;91.10;;;87.18;;
49488;SDS011;35382;51.484;11.476;2022-07-10T06:04:45;65.45;;;62.85;;
49488;SDS011;35382;51.484;11.476;2022-07-10T06:06:26;89.65;;;86.20;;
49488;SDS011;35382;51.484;11.476;2022-07-10T06:08:07;68.07;;;65.20;;
49488;SDS011;35382;51.484;11.476;2022-07-10T06:09:48;66.53;;;63.28;;
49488;SDS011;35382;51.484;11.476;2022-07-10T06:11:29;67.45;;;64.18;;
49488;SDS011;35382;51.484;11.476;2022-07-10T06:13:10;102.82;;;98.63;;
49488;SDS011;35382;51.484;11.476;2022-07-10T06:14:52;71.85;;;68.68;;
49488;SDS011;35382;51.484;11.476;2022-07-10T06:16:33;56.38;;;53.80;;
49488;SDS011;35382;51.484;11.476;2022-07-10T06:18:14;62.13;;;59.42;;
49488;SDS011;35382;51.484;11.476;2022-07-10T06:19:55;73.20;;;70.10;;
49488;SDS011;35382;51.484;11.476;2022-07-10T06:21:36;76.88;;;73.38;;
49488;SDS011;35382;51.484;11.476;2022-07-10T06:23:16;69.38;;;66.47;;
49488;SDS011;35382;51.484;11.476;2022-07-10T06:24:58;57.50;;;54.90;;
49488;SDS011;35382;51.484;11.476;2022-07-10T06:26:39;80.70;;;77.63;;
49488;SDS011;35382;51.484;11.476;2022-07-10T06:28:20;66.25;;;63.45;;
49488;SDS011;35382;51.484;11.476;2022-07-10T06:30:02;70.20;;;67.28;;
49488;SDS011;35382;51.484;11.476;2022-07-10T06:31:43;71.07;;;68.18;;
49488;SDS011;35382;51.484;11.476;2022-07-10T06:33:24;74.32;;;71.32;;
49488;SDS011;35382;51.484;11.476;2022-07-10T06:35:05;78.47;;;75.28;;
49488;SDS011;35382;51.484;11.476;2022-07-10T06:36:47;75.40;;;72.43;;
49488;SDS011;35382;51.484;11.476;2022-07-10T06:38:28;62.72;;;60.03;;
49488;SDS011;35382;51.484;11.476;2022-07-10T06:40:11;74.15;;;70.85;;
49488;SDS011;35382;51.484;11.476;2022-07-10T06:41:54;52.63;;;50.38;;
49488;SDS011;35382;51.484;11.476;2022-07-10T06:43:35;45.22;;;43.22;;
49488;SDS011;35382;51.484;11.476;2022-07-10T06:45:16;55.30;;;52.58;;
49488;SDS011;35382;51.484;11.476;2022-07-10T06:46:57;40.65;;;38.78;;
49488;SDS011;35382;51.484;11.476;2022-07-10T06:48:58;42.70;;;40.88;;
49488;SDS011;35382;51.484;11.476;2022-07-10T06:50:40;45.92;;;43.88;;
49488;SDS011;35382;51.484;11.476;2022-07-10T06:52:22;59.47;;;56.90;;
49488;SDS011;35382;51.484;11.476;2022-07-10T06:54:03;72.03;;;68.97;;
49488;SDS011;35382;51.484;11.476;2022-07-10T06:55:44;48.63;;;46.42;;
49488;SDS011;35382;51.484;11.476;2022-07-10T06:57:25;61.35;;;58.72;;
49488;SDS011;35382;51.484;11.476;2022-07-10T06:59:06;34.35;;;32.67;;
49488;SDS011;35382;51.484;11.476;2022-07-10T07:00:47;43.53;;;41.50;;
49488;SDS011;35382;51.484;11.476;2022-07-10T07:02:28;58.70;;;56.30;;
49488;SDS011;35382;51.484;11.476;2022-07-10T07:04:09;44.55;;;42.55;;
49488;SDS011;35382;51.484;11.476;2022-07-10T07:05:50;48.25;;;46.05;;
49488;SDS011;35382;51.484;11.476;2022-07-10T07:07:31;35.03;;;33.22;;
49488;SDS011;35382;51.484;11.476;2022-07-10T07:09:12;52.03;;;49.42;;
49488;SDS011;35382;51.484;11.476;2022-07-10T07:10:52;56.95;;;54.58;;
49488;SDS011;35382;51.484;11.476;2022-07-10T07:12:33;35.25;;;33.55;;
49488;SDS011;35382;51.484;11.476;2022-07-10T07:14:14;41.58;;;39.58;;
49488;SDS011;35382;51.484;11.476;2022-07-10T07:15:55;38.05;;;36.13;;
49488;SDS011;35382;51.484;11.476;2022-07-10T07:17:41;32.50;;;30.58;;
49488;SDS011;35382;51.484;11.476;2022-07-10T07:19:37;37.08;;;35.38;;
49488;SDS011;35382;51.484;11.476;2022-07-10T07:21:37;39.58;;;37.78;;
49488;SDS011;35382;51.484;11.476;2022-07-10T07:23:37;44.00;;;41.90;;
49488;SDS011;35382;51.484;11.476;2022-07-10T07:25:18;49.97;;;47.67;;
49488;SDS011;35382;51.484;11.476;2022-07-10T07:26:59;32.88;;;30.90;;
49488;SDS011;35382;51.484;11.476;2022-07-10T07:28:40;23.52;;;22.20;;
49488;SDS011;35382;51.484;11.476;2022-07-10T07:30:21;21.60;;;20.30;;
49488;SDS011;35382;51.484;11.476;2022-07-10T07:32:02;23.23;;;21.75;;
49488;SDS011;35382;51.484;11.476;2022-07-10T07:33:43;21.23;;;20.05;;
49488;SDS011;35382;51.484;11.476;2022-07-10T07:35:24;22.15;;;20.85;;
49488;SDS011;35382;51.484;11.476;2022-07-10T07:37:05;24.17;;;22.48;;
49488;SDS011;35382;51.484;11.476;2022-07-10T07:38:46;22.88;;;21.63;;
49488;SDS011;35382;51.484;11.476;2022-07-10T07:40:26;19.50;;;17.98;;
49488;SDS011;35382;51.484;11.476;2022-07-10T07:42:08;24.55;;;23.15;;
49488;SDS011;35382;51.484;11.476;2022-07-10T07:43:49;19.17;;;18.02;;
49488;SDS011;35382;51.484;11.476;2022-07-10T07:45:30;18.27;;;17.27;;
49488;SDS011;35382;51.484;11.476;2022-07-10T07:47:11;30.13;;;28.60;;
49488;SDS011;35382;51.484;11.476;2022-07-10T07:48:51;18.70;;;17.70;;
49488;SDS011;35382;51.484;11.476;2022-07-10T07:50:33;19.17;;;17.95;;
49488;SDS011;35382;51.484;11.476;2022-07-10T07:52:15;22.98;;;21.58;;
49488;SDS011;35382;51.484;11.476;2022-07-10T07:53:56;20.98;;;19.70;;
49488;SDS011;35382;51.484;11.476;2022-07-10T07:55:37;18.67;;;17.67;;
49488;SDS011;35382;51.484;11.476;2022-07-10T07:57:18;21.92;;;20.52;;
49488;SDS011;35382;51.484;11.476;2022-07-10T07:58:59;20.75;;;19.55;;
49488;SDS011;35382;51.484;11.476;2022-07-10T08:00:40;18.45;;;17.15;;
49488;SDS011;35382;51.484;11.476;2022-07-10T08:02:22;16.23;;;15.02;;
49488;SDS011;35382;51.484;11.476;2022-07-10T08:04:03;18.83;;;17.20;;
49488;SDS011;35382;51.484;11.476;2022-07-10T08:05:44;16.00;;;14.80;;
49488;SDS011;35382;51.484;11.476;2022-07-10T08:09:28;16.10;;;15.07;;
49488;SDS011;35382;51.484;11.476;2022-07-10T08:11:09;17.00;;;15.68;;
49488;SDS011;35382;51.484;11.476;2022-07-10T08:12:50;20.10;;;18.55;;
49488;SDS011;35382;51.484;11.476;2022-07-10T08:14:31;17.08;;;15.85;;
49488;SDS011;35382;51.484;11.476;2022-07-10T08:16:12;17.38;;;16.15;;
49488;SDS011;35382;51.484;11.476;2022-07-10T08:17:54;22.83;;;21.05;;
49488;SDS011;35382;51.484;11.476;2022-07-10T08:19:36;19.05;;;17.67;;
49488;SDS011;35382;51.484;11.476;2022-07-10T08:21:17;21.08;;;19.58;;
49488;SDS011;35382;51.484;11.476;2022-07-10T08:22:57;22.60;;;20.95;;
49488;SDS011;35382;51.484;11.476;2022-07-10T08:24:38;24.92;;;23.33;;
49488;SDS011;35382;51.484;11.476;2022-07-10T08:26:19;20.80;;;19.42;;
49488;SDS011;35382;51.484;11.476;2022-07-10T08:28:01;17.42;;;16.13;;
49488;SDS011;35382;51.484;11.476;2022-07-10T08:29:43;16.17;;;14.88;;
49488;SDS011;35382;51.484;11.476;2022-07-10T08:31:24;20.90;;;19.42;;
49488;SDS011;35382;51.484;11.476;2022-07-10T08:33:05;16.95;;;15.55;;
49488;SDS011;35382;51.484;11.476;2022-07-10T08:34:46;16.88;;;15.45;;
49488;SDS011;35382;51.484;11.476;2022-07-10T08:36:28;15.95;;;14.65;;
49488;SDS011;35382;51.484;11.476;2022-07-10T08:38:09;18.67;;;17.23;;
49488;SDS011;35382;51.484;11.476;2022-07-10T08:39:50;16.52;;;15.32;;
49488;SDS011;35382;51.484;11.476;2022-07-10T08:41:32;16.55;;;15.23;;
49488;SDS011;35382;51.484;11.476;2022-07-10T08:43:16;14.90;;;13.73;;
49488;SDS011;35382;51.484;11.476;2022-07-10T08:44:57;12.70;;;11.55;;
49488;SDS011;35382;51.484;11.476;2022-07-10T08:46:39;13.63;;;11.32;;
49488;SDS011;35382;51.484;11.476;2022-07-10T08:48:23;11.02;;;10.13;;
49488;SDS011;35382;51.484;11.476;2022-07-10T08:50:31;13.10;;;11.75;;
49488;SDS011;35382;51.484;11.476;2022-07-10T08:52:13;13.55;;;12.50;;
49488;SDS011;35382;51.484;11.476;2022-07-10T08:54:23;15.65;;;12.50;;
49488;SDS011;35382;51.484;11.476;2022-07-10T08:56:08;11.10;;;9.93;;
49488;SDS011;35382;51.484;11.476;2022-07-10T08:57:50;9.70;;;5.90;;
49488;SDS011;35382;51.484;11.476;2022-07-10T08:59:31;8.07;;;6.60;;
49488;SDS011;35382;51.484;11.476;2022-07-10T09:01:12;8.60;;;7.70;;
49488;SDS011;35382;51.484;11.476;2022-07-10T09:02:53;10.13;;;6.57;;
49488;SDS011;35382;51.484;11.476;2022-07-10T09:04:36;7.15;;;5.80;;
49488;SDS011;35382;51.484;11.476;2022-07-10T09:06:16;8.80;;;6.00;;
49488;SDS011;35382;51.484;11.476;2022-07-10T09:07:57;8.52;;;6.20;;
49488;SDS011;35382;51.484;11.476;2022-07-10T09:09:54;8.75;;;6.28;;
49488;SDS011;35382;51.484;11.476;2022-07-10T09:11:36;6.95;;;6.20;;
49488;SDS011;35382;51.484;11.476;2022-07-10T09:13:18;9.45;;;6.22;;
49488;SDS011;35382;51.484;11.476;2022-07-10T09:15:14;8.60;;;7.65;;
49488;SDS011;35382;51.484;11.476;2022-07-10T09:16:57;7.57;;;6.65;;
49488;SDS011;35382;51.484;11.476;2022-07-10T09:18:38;8.27;;;6.82;;
49488;SDS011;35382;51.484;11.476;2022-07-10T09:20:32;9.18;;;5.88;;
49488;SDS011;35382;51.484;11.476;2022-07-10T09:22:15;9.23;;;5.63;;
49488;SDS011;35382;51.484;11.476;2022-07-10T09:23:58;8.20;;;5.60;;
49488;SDS011;35382;51.484;11.476;2022-07-10T09:25:40;8.65;;;6.55;;
49488;SDS011;35382;51.484;11.476;2022-07-10T09:27:21;8.50;;;5.90;;
49488;SDS011;35382;51.484;11.476;2022-07-10T09:29:09;10.43;;;6.25;;
49488;SDS011;35382;51.484;11.476;2022-07-10T09:30:51;8.63;;;6.05;;
49488;SDS011;35382;51.484;11.476;2022-07-10T09:32:32;9.02;;;6.85;;
49488;SDS011;35382;51.484;11.476;2022-07-10T09:34:13;8.48;;;6.60;;
49488;SDS011;35382;51.484;11.476;2022-07-10T09:35:55;9.43;;;6.57;;
49488;SDS011;35382;51.484;11.476;2022-07-10T09:37:48;10.38;;;5.40;;
49488;SDS011;35382;51.484;11.476;2022-07-10T09:39:29;9.68;;;5.43;;
49488;SDS011;35382;51.484;11.476;2022-07-10T09:43:00;9.63;;;5.95;;
49488;SDS011;35382;51.484;11.476;2022-07-10T09:44:41;10.30;;;5.35;;
49488;SDS011;35382;51.484;11.476;2022-07-10T09:46:23;8.25;;;6.38;;
49488;SDS011;35382;51.484;11.476;2022-07-10T09:48:06;8.45;;;5.60;;
49488;SDS011;35382;51.484;11.476;2022-07-10T09:49:47;9.85;;;6.05;;
49488;SDS011;35382;51.484;11.476;2022-07-10T09:51:29;6.13;;;5.00;;
49488;SDS011;35382;51.484;11.476;2022-07-10T09:53:12;6.97;;;6.38;;
49488;SDS011;35382;51.484;11.476;2022-07-10T09:54:58;9.50;;;5.75;;